createdAt,value
2019-04-21T00:01:00.466Z,5.03
2019-04-21T00:03:35.603Z,4.47
2019-04-21T00:06:26.389Z,4.30
2019-04-21T00:09:04.304Z,4.73
2019-04-21T00:11:36.587Z,4.40
2019-04-21T00:14:01.008Z,4.60
2019-04-21T00:16:29.122Z,4.73
2019-04-21T00:19:11.891Z,4.57
2019-04-21T00:21:45.014Z,4.77
2019-04-21T00:24:34.750Z,4.83
2019-04-21T00:27:05.549Z,4.80
2019-04-21T00:32:10.134Z,4.67
2019-04-21T00:34:28.448Z,4.40
2019-04-21T00:37:12.109Z,4.90
2019-04-21T00:40:09.246Z,4.63
2019-04-21T00:42:30.335Z,4.67
2019-04-21T00:45:00.003Z,4.77
2019-04-21T00:47:36.958Z,4.37
2019-04-21T00:50:10.973Z,5.07
2019-04-21T00:53:05.801Z,5.40
2019-04-21T00:56:07.215Z,5.13
2019-04-21T00:58:26.888Z,4.93
2019-04-21T01:00:52.304Z,5.13
2019-04-21T01:03:47.370Z,5.10
2019-04-21T01:06:04.141Z,5.00
2019-04-21T01:08:35.689Z,5.00
2019-04-21T01:11:02.207Z,4.93
2019-04-21T01:13:45.562Z,4.87
2019-04-21T01:16:21.193Z,4.33
2019-04-21T01:18:50.119Z,4.80
2019-04-21T01:21:13.674Z,4.57
2019-04-21T01:23:38.131Z,4.83
2019-04-21T01:26:23.808Z,5.07
2019-04-21T01:29:04.384Z,5.10
2019-04-21T01:31:37.644Z,4.90
2019-04-21T01:34:17.502Z,4.67
2019-04-21T01:36:45.480Z,4.50
2019-04-21T01:39:22.607Z,4.57
2019-04-21T01:41:59.091Z,4.80
2019-04-21T01:44:36.110Z,4.50
2019-04-21T01:46:58.258Z,4.87
2019-04-21T01:49:28.583Z,3.97
2019-04-21T01:52:36.130Z,5.60
2019-04-21T01:55:25.190Z,5.40
2019-04-21T01:58:00.448Z,5.30
2019-04-21T02:00:56.857Z,5.40
2019-04-21T02:08:41.499Z,5.07
2019-04-21T02:11:24.444Z,5.43
2019-04-21T02:14:02.007Z,4.50
2019-04-21T02:16:29.302Z,4.70
2019-04-21T02:18:58.876Z,4.87
2019-04-21T02:21:31.714Z,4.47
2019-04-21T02:24:15.192Z,4.40
2019-04-21T02:26:41.478Z,5.10
2019-04-21T02:29:20.677Z,4.60
2019-04-21T02:32:01.901Z,4.60
2019-04-21T02:42:11.512Z,4.63
2019-04-21T02:52:37.279Z,4.87
2019-04-21T02:55:13.463Z,5.00
2019-04-21T02:57:41.271Z,4.80
2019-04-21T03:03:09.149Z,5.03
2019-04-21T03:05:50.490Z,4.67
2019-04-21T03:08:38.544Z,5.03
2019-04-21T03:11:04.286Z,4.70
2019-04-21T03:16:21.423Z,5.10
2019-04-21T03:18:54.117Z,5.07
2019-04-21T03:26:33.924Z,5.13
2019-04-21T03:29:06.721Z,4.93
2019-04-21T03:31:50.953Z,5.00
2019-04-21T03:39:07.800Z,4.67
2019-04-21T03:41:56.796Z,4.73
2019-04-21T03:44:22.611Z,4.43
2019-04-21T03:46:57.298Z,4.80
2019-04-21T03:49:40.374Z,4.67
2019-04-21T03:52:15.305Z,4.30
2019-04-21T03:54:41.517Z,4.77
2019-04-21T03:57:19.831Z,5.47
2019-04-21T03:59:45.077Z,5.13
2019-04-21T04:02:51.364Z,4.97
2019-04-21T04:05:16.618Z,4.80
2019-04-21T04:08:02.572Z,5.30
2019-04-21T04:10:50.056Z,4.03
2019-04-21T04:13:05.934Z,4.07
2019-04-21T04:15:49.373Z,4.50
2019-04-21T04:18:24.654Z,3.90
2019-04-21T04:21:06.987Z,4.37
2019-04-21T04:23:24.807Z,5.30
2019-04-21T04:25:49.740Z,4.50
2019-04-21T04:28:28.751Z,4.50
2019-04-21T04:31:05.098Z,4.20
2019-04-21T04:36:33.900Z,4.17
2019-04-21T04:38:46.821Z,4.83
2019-04-21T04:41:35.137Z,5.50
2019-04-21T04:44:13.718Z,5.20
2019-04-21T04:46:55.807Z,4.57
2019-04-21T04:49:23.993Z,4.27
2019-04-21T04:54:24.642Z,4.77
2019-04-21T04:56:58.954Z,4.93
2019-04-21T04:59:32.523Z,4.87
2019-04-21T05:07:07.090Z,5.57
2019-04-21T05:12:12.047Z,5.47
2019-04-21T05:17:30.930Z,5.17
2019-04-21T05:20:08.799Z,5.70
2019-04-21T05:24:55.244Z,6.30
2019-04-21T05:27:36.570Z,5.20
2019-04-21T05:30:26.629Z,5.77
2019-04-21T05:33:04.717Z,5.70
2019-04-21T05:35:50.678Z,5.70
2019-04-21T05:38:27.313Z,5.47
2019-04-21T05:40:57.649Z,5.07
2019-04-21T05:43:43.773Z,6.43
2019-04-21T05:46:13.381Z,5.40
2019-04-21T05:48:52.616Z,6.47
2019-04-21T05:51:26.656Z,6.90
2019-04-21T05:54:10.938Z,6.37
2019-04-21T05:56:36.639Z,6.57
2019-04-21T05:59:07.961Z,6.23
2019-04-21T06:01:46.369Z,5.50
2019-04-21T06:04:32.349Z,5.40
2019-04-21T06:06:58.779Z,5.10
2019-04-21T06:09:25.508Z,4.83
2019-04-21T06:12:02.929Z,4.77
2019-04-21T06:14:43.985Z,4.27
2019-04-21T06:17:19.221Z,5.20
2019-04-21T06:19:52.788Z,4.30
2019-04-21T06:22:20.354Z,4.60
2019-04-21T06:25:24.320Z,4.63
2019-04-21T06:30:03.476Z,4.97
2019-04-21T06:35:45.530Z,4.30
2019-04-21T06:38:04.684Z,4.57
2019-04-21T06:40:42.189Z,4.43
2019-04-21T06:43:27.023Z,4.80
2019-04-21T06:46:04.456Z,4.53
2019-04-21T06:48:24.761Z,4.13
2019-04-21T06:51:01.968Z,4.27
2019-04-21T06:53:37.745Z,4.13
2019-04-21T06:56:08.789Z,4.23
2019-04-21T06:58:40.036Z,4.27
2019-04-21T07:01:11.473Z,4.20
2019-04-21T07:03:55.467Z,4.47
2019-04-21T07:06:12.890Z,3.90
2019-04-21T07:09:04.365Z,4.07
2019-04-21T07:11:25.577Z,4.13
2019-04-21T07:14:22.593Z,4.50
2019-04-21T07:16:39.064Z,3.63
2019-04-21T07:19:12.913Z,3.93
2019-04-21T07:21:38.472Z,4.30
2019-04-21T07:24:23.649Z,4.00
2019-04-21T07:26:53.573Z,4.00
2019-04-21T07:29:27.197Z,4.30
2019-04-21T07:32:05.008Z,3.97
2019-04-21T07:34:33.241Z,4.10
2019-04-21T07:37:05.943Z,4.20
2019-04-21T07:39:40.779Z,4.47
2019-04-21T07:42:09.927Z,4.13
2019-04-21T07:44:42.336Z,4.33
2019-04-21T07:47:23.080Z,3.80
2019-04-21T07:50:00.469Z,3.90
2019-04-21T07:58:13.169Z,3.77
2019-04-21T08:00:52.178Z,4.20
2019-04-21T08:03:30.322Z,4.80
2019-04-21T08:05:58.654Z,4.23
2019-04-21T08:08:26.344Z,3.87
2019-04-21T08:11:04.543Z,4.00
2019-04-21T08:16:17.421Z,4.40
2019-04-21T08:18:47.631Z,4.07
2019-04-21T08:21:20.770Z,3.80
2019-04-21T08:23:55.455Z,4.00
2019-04-21T08:26:34.527Z,4.00
2019-04-21T08:29:15.868Z,4.20
2019-04-21T08:31:48.535Z,4.10
2019-04-21T08:34:17.800Z,4.13
2019-04-21T08:36:47.658Z,4.10
2019-04-21T08:39:22.794Z,4.03
2019-04-21T08:41:58.747Z,4.60
2019-04-21T08:44:38.214Z,4.10
2019-04-21T08:47:06.257Z,4.20
2019-04-21T08:49:39.213Z,4.07
2019-04-21T08:52:23.317Z,4.37
2019-04-21T08:54:51.491Z,3.90
2019-04-21T08:57:47.600Z,4.80
2019-04-21T09:00:21.192Z,4.63
2019-04-21T09:03:02.468Z,4.40
2019-04-21T09:05:37.735Z,4.93
2019-04-21T09:08:15.287Z,4.77
2019-04-21T09:10:39.636Z,5.30
2019-04-21T09:13:17.368Z,5.00
2019-04-21T09:15:49.625Z,4.90
2019-04-21T09:18:21.448Z,4.70
2019-04-21T09:20:57.078Z,5.40
2019-04-21T09:23:36.427Z,5.60
2019-04-21T09:26:13.057Z,5.53
2019-04-21T09:28:38.326Z,4.87
2019-04-21T09:30:59.504Z,5.13
2019-04-21T09:33:35.780Z,4.80
2019-04-21T09:36:07.890Z,5.23
2019-04-21T09:38:41.512Z,5.03
2019-04-21T09:41:15.954Z,4.87
2019-04-21T09:43:48.982Z,5.57
2019-04-21T09:46:20.750Z,4.30
2019-04-21T09:48:59.289Z,4.67
2019-04-21T09:51:28.369Z,4.93
2019-04-21T09:54:08.808Z,5.10
2019-04-21T09:56:45.448Z,5.03
2019-04-21T09:59:19.813Z,4.87
2019-04-21T10:01:55.901Z,4.87
2019-04-21T10:04:18.789Z,4.90
2019-04-21T10:06:51.975Z,4.93
2019-04-21T10:09:26.322Z,4.70
2019-04-21T10:12:00.834Z,5.00
2019-04-21T10:14:33.069Z,5.47
2019-04-21T10:17:27.554Z,5.10
2019-04-21T10:20:00.714Z,4.77
2019-04-21T10:22:33.070Z,4.53
2019-04-21T10:25:07.021Z,4.53
2019-04-21T10:27:41.233Z,4.47
2019-04-21T10:30:16.209Z,5.17
2019-04-21T10:32:48.526Z,4.43
2019-04-21T10:35:21.827Z,5.00
2019-04-21T10:38:09.265Z,4.73
2019-04-21T10:40:32.571Z,4.27
2019-04-21T10:43:04.318Z,5.07
2019-04-21T10:45:36.959Z,6.93
2019-04-21T10:48:10.677Z,4.40
2019-04-21T10:50:43.136Z,5.33
2019-04-21T10:53:23.004Z,4.43
2019-04-21T10:56:09.675Z,5.30
2019-04-21T10:58:40.480Z,4.77
2019-04-21T11:01:18.956Z,4.80
2019-04-21T11:04:20.007Z,4.37
2019-04-21T11:06:42.426Z,5.23
2019-04-21T11:09:15.862Z,4.53
2019-04-21T11:11:49.978Z,4.80
2019-04-21T11:14:23.031Z,5.50
2019-04-21T11:16:56.585Z,4.83
2019-04-21T11:19:30.576Z,4.70
2019-04-21T11:22:03.277Z,4.63
2019-04-21T11:24:36.716Z,5.00
2019-04-21T11:27:08.885Z,4.50
2019-04-21T11:29:41.358Z,4.47
2019-04-21T11:32:14.678Z,4.73
2019-04-21T11:34:47.261Z,4.53
2019-04-21T11:37:21.957Z,4.80
2019-04-21T11:40:01.294Z,4.67
2019-04-21T11:42:37.795Z,4.50
2019-04-21T11:45:10.615Z,4.47
2019-04-21T11:47:56.478Z,4.40
2019-04-21T11:50:30.807Z,4.53
2019-04-21T11:53:03.163Z,5.37
2019-04-21T11:55:39.762Z,4.30
2019-04-21T11:58:09.928Z,3.70
2019-04-21T12:00:43.196Z,3.37
2019-04-21T12:03:17.060Z,3.83
2019-04-21T12:05:51.102Z,4.37
2019-04-21T12:08:32.420Z,4.70
2019-04-21T12:10:59.732Z,4.60
2019-04-21T12:13:32.242Z,5.07
2019-04-21T12:16:05.348Z,4.40
2019-04-21T12:18:38.815Z,4.70
2019-04-21T12:21:11.541Z,4.70
2019-04-21T12:23:44.785Z,4.90
2019-04-21T12:26:18.072Z,5.17
2019-04-21T12:28:50.250Z,4.60
2019-04-21T12:31:47.620Z,4.03
2019-04-21T12:34:19.457Z,4.17
2019-04-21T12:36:52.813Z,4.70
2019-04-21T12:39:26.990Z,4.80
2019-04-21T12:42:00.598Z,4.03
2019-04-21T12:44:34.263Z,4.87
2019-04-21T12:47:07.953Z,4.47
2019-04-21T12:49:41.395Z,4.30
2019-04-21T12:52:15.331Z,5.03
2019-04-21T12:54:48.031Z,5.13
2019-04-21T12:57:21.408Z,5.00
2019-04-21T12:59:55.506Z,5.30
2019-04-21T13:02:29.567Z,4.73
2019-04-21T13:05:02.108Z,4.70
2019-04-21T13:07:35.435Z,4.70
2019-04-21T13:10:10.439Z,3.87
2019-04-21T13:12:43.781Z,3.43
2019-04-21T13:15:17.741Z,5.13
2019-04-21T13:17:50.329Z,4.10
2019-04-21T13:20:23.305Z,4.30
2019-04-21T13:22:55.520Z,4.90
2019-04-21T13:25:28.137Z,5.03
2019-04-21T13:28:00.958Z,4.40
2019-04-21T13:30:33.566Z,5.13
2019-04-21T13:33:07.108Z,4.97
2019-04-21T13:35:41.204Z,4.47
2019-04-21T13:38:24.322Z,4.40
2019-04-21T13:41:29.742Z,4.50
2019-04-21T13:43:50.761Z,4.60
2019-04-21T13:46:22.877Z,4.33
2019-04-21T13:48:54.977Z,3.80
2019-04-21T13:51:27.074Z,3.80
2019-04-21T13:53:59.668Z,4.40
2019-04-21T13:56:32.335Z,3.53
2019-04-21T13:59:06.408Z,3.80
2019-04-21T14:01:39.564Z,3.50
2019-04-21T14:04:11.742Z,3.80
2019-04-21T14:06:45.020Z,4.13
2019-04-21T14:09:17.734Z,3.90
2019-04-21T14:11:53.509Z,4.03
2019-04-21T14:14:26.187Z,3.53
2019-04-21T14:17:00.418Z,4.40
2019-04-21T14:19:33.385Z,4.10
2019-04-21T14:22:08.571Z,4.23
2019-04-21T14:24:41.521Z,3.90
2019-04-21T14:27:14.384Z,3.80
2019-04-21T14:29:46.558Z,3.60
2019-04-21T14:32:20.132Z,3.57
2019-04-21T14:34:54.062Z,3.80
2019-04-21T14:37:26.841Z,3.70
2019-04-21T14:40:06.263Z,3.93
2019-04-21T14:42:34.011Z,4.37
2019-04-21T14:45:09.313Z,4.60
2019-04-21T14:48:00.948Z,3.63
2019-04-21T14:50:54.667Z,3.90
2019-04-21T14:53:29.663Z,3.80
2019-04-21T14:56:03.694Z,3.05
2019-04-21T14:58:37.125Z,4.40
2019-04-21T15:01:10.426Z,3.97
2019-04-21T15:03:43.715Z,3.10
2019-04-21T15:06:16.608Z,3.62
2019-04-21T15:08:49.290Z,4.37
2019-04-21T15:11:22.220Z,4.47
2019-04-21T15:13:55.903Z,4.63
2019-04-21T15:16:29.069Z,4.03
2019-04-21T15:19:02.404Z,4.33
2019-04-21T15:21:35.406Z,4.07
2019-04-21T15:24:08.732Z,3.97
2019-04-21T15:26:42.061Z,4.20
2019-04-21T15:29:15.151Z,3.90
2019-04-21T15:31:48.374Z,3.97
2019-04-21T15:34:23.945Z,4.00
2019-04-21T15:36:55.977Z,4.00
2019-04-21T15:39:28.108Z,4.40
2019-04-21T15:42:00.804Z,4.43
2019-04-21T15:44:34.625Z,4.33
2019-04-21T15:47:08.200Z,4.40
2019-04-21T15:50:06.812Z,3.67
2019-04-21T15:52:33.862Z,4.10
2019-04-21T15:55:14.780Z,4.30
2019-04-21T15:57:58.543Z,4.20
2019-04-21T16:00:49.673Z,3.83
2019-04-21T16:03:22.632Z,3.70
2019-04-21T16:05:55.823Z,3.93
2019-04-21T16:08:28.998Z,4.30
2019-04-21T16:11:05.520Z,3.60
2019-04-21T16:13:37.224Z,3.67
2019-04-21T16:16:10.505Z,3.63
2019-04-21T16:18:43.701Z,3.80
2019-04-21T16:21:17.940Z,3.97
2019-04-21T16:23:50.774Z,3.70
2019-04-21T16:26:24.612Z,3.83
2019-04-21T16:28:57.450Z,3.60
2019-04-21T16:31:30.153Z,3.53
2019-04-21T16:34:03.157Z,3.90
2019-04-21T16:36:36.002Z,3.43
2019-04-21T16:39:11.412Z,3.50
2019-04-21T16:41:44.573Z,3.57
2019-04-21T16:44:18.772Z,3.93
2019-04-21T16:46:51.798Z,3.63
2019-04-21T16:49:25.347Z,3.30
2019-04-21T16:52:28.258Z,3.40
2019-04-21T16:55:19.079Z,3.27
2019-04-21T16:58:04.277Z,3.07
2019-04-21T17:00:41.876Z,2.80
2019-04-21T17:03:06.406Z,3.30
2019-04-21T17:05:38.540Z,2.80
2019-04-21T17:08:11.241Z,3.00
2019-04-21T17:10:57.264Z,2.90
2019-04-21T17:13:18.291Z,2.80
2019-04-21T17:16:07.758Z,2.80
2019-04-21T17:18:43.221Z,3.13
2019-04-21T17:21:01.198Z,3.20
2019-04-21T17:23:33.546Z,2.80
2019-04-21T17:26:06.355Z,2.63
2019-04-21T17:28:38.618Z,2.50
2019-04-21T17:31:12.757Z,3.20
2019-04-21T17:33:46.668Z,2.90
2019-04-21T17:36:19.005Z,2.27
2019-04-21T17:38:52.272Z,2.30
2019-04-21T17:41:31.808Z,2.40
2019-04-21T17:44:00.386Z,2.10
2019-04-21T17:46:42.123Z,2.10
2019-04-21T17:49:07.086Z,2.53
2019-04-21T17:52:01.131Z,2.23
2019-04-21T17:54:44.794Z,2.33
2019-04-21T17:57:31.823Z,1.97
2019-04-21T18:00:08.196Z,2.00
2019-04-21T18:02:44.063Z,1.97
2019-04-21T18:05:19.326Z,2.83
2019-04-21T18:07:41.846Z,2.17
2019-04-21T18:10:15.982Z,2.43
2019-04-21T18:12:45.841Z,2.10
2019-04-21T18:15:32.996Z,2.40
2019-04-21T18:17:44.855Z,2.57
2019-04-21T18:20:21.878Z,2.30
2019-04-21T18:23:30.155Z,1.97
2019-04-21T18:25:57.772Z,2.10
2019-04-21T18:28:26.377Z,1.90
2019-04-21T18:31:08.436Z,1.90
2019-04-21T18:34:08.752Z,2.40
2019-04-21T18:36:53.509Z,1.77
2019-04-21T18:39:56.269Z,2.00
2019-04-21T18:42:43.741Z,1.80
2019-04-21T18:45:54.942Z,1.90
2019-04-21T18:48:29.331Z,1.50
2019-04-21T18:51:17.020Z,2.10
2019-04-21T18:54:20.932Z,1.87
2019-04-21T18:56:35.732Z,2.03
2019-04-21T18:59:08.941Z,1.80
2019-04-21T19:01:51.565Z,2.20
2019-04-21T19:04:20.522Z,2.20
2019-04-21T19:07:09.398Z,2.43
2019-04-21T19:10:03.602Z,2.67
2019-04-21T19:12:23.577Z,2.93
2019-04-21T19:14:52.092Z,3.17
2019-04-21T19:20:12.996Z,2.33
2019-04-21T19:22:38.699Z,2.77
2019-04-21T19:25:26.889Z,2.93
2019-04-21T19:27:51.224Z,3.13
2019-04-21T19:30:29.836Z,3.23
2019-04-21T19:32:58.104Z,2.67
2019-04-21T19:35:13.472Z,2.80
2019-04-21T19:37:56.435Z,3.23
2019-04-21T19:40:34.064Z,2.80
2019-04-21T19:43:03.422Z,2.50
2019-04-21T19:45:45.118Z,2.97
2019-04-21T19:48:20.421Z,3.00
2019-04-21T19:50:57.812Z,2.53
2019-04-21T19:53:24.377Z,2.37
2019-04-21T19:55:47.904Z,3.60
2019-04-21T19:58:31.149Z,3.90
2019-04-21T20:00:57.399Z,3.60
2019-04-21T20:03:30.595Z,3.33
2019-04-21T20:06:11.828Z,3.00
2019-04-21T20:08:54.685Z,2.93
2019-04-21T20:11:30.578Z,2.83
2019-04-21T20:14:35.270Z,2.50
2019-04-21T20:16:41.281Z,3.53
2019-04-21T20:19:01.400Z,3.27
2019-04-21T20:21:31.042Z,2.93
2019-04-21T20:24:10.694Z,2.37
2019-04-21T20:26:43.399Z,2.97
2019-04-21T20:29:24.795Z,2.37
2019-04-21T20:32:08.465Z,2.60
2019-04-21T20:34:39.399Z,2.57
2019-04-21T20:37:14.780Z,2.23
2019-04-21T20:39:41.762Z,2.67
2019-04-21T20:42:28.967Z,3.00
2019-04-21T20:44:58.375Z,3.03
2019-04-21T20:47:23.187Z,3.20
2019-04-21T20:49:59.793Z,2.70
2019-04-21T20:52:46.481Z,3.37
2019-04-21T20:55:07.733Z,2.70
2019-04-21T20:57:44.669Z,2.90
2019-04-21T21:00:21.049Z,3.17
2019-04-21T21:02:50.752Z,3.40
2019-04-21T21:05:27.323Z,3.17
2019-04-21T21:08:08.575Z,3.23
2019-04-21T21:10:36.821Z,3.13
2019-04-21T21:13:22.191Z,2.53
2019-04-21T21:15:51.354Z,2.67
2019-04-21T21:18:38.547Z,2.23
2019-04-21T21:20:56.502Z,2.80
2019-04-21T21:23:35.466Z,2.20
2019-04-21T21:26:09.472Z,2.53
2019-04-21T21:28:32.586Z,2.65
2019-04-21T21:31:13.345Z,3.03
2019-04-21T21:33:58.973Z,2.73
2019-04-21T21:36:20.252Z,3.00
2019-04-21T21:38:56.176Z,2.43
2019-04-21T21:41:19.945Z,2.23
2019-04-21T21:43:51.503Z,2.17
2019-04-21T21:46:36.864Z,2.47
2019-04-21T21:49:05.030Z,2.50
2019-04-21T21:51:39.265Z,2.03
2019-04-21T21:54:03.304Z,2.57
2019-04-21T21:56:36.491Z,2.40
2019-04-21T21:59:15.056Z,2.33
2019-04-21T22:01:51.924Z,2.47
2019-04-21T22:04:26.113Z,2.30
2019-04-21T22:07:02.583Z,1.97
2019-04-21T22:09:30.339Z,2.00
2019-04-21T22:12:06.613Z,2.40
2019-04-21T22:14:43.309Z,2.17
2019-04-21T22:17:29.463Z,2.30
2019-04-21T22:20:12.252Z,2.10
2019-04-21T22:22:31.349Z,2.30
2019-04-21T22:25:04.569Z,2.17
2019-04-21T22:27:29.062Z,2.20
2019-04-21T22:30:05.891Z,2.13
2019-04-21T22:32:36.876Z,2.17
2019-04-21T22:35:23.596Z,2.40
2019-04-21T22:37:56.752Z,2.37
2019-04-21T22:40:29.131Z,2.50
2019-04-21T22:43:04.921Z,2.90
2019-04-21T22:45:31.206Z,2.60
2019-04-21T22:48:13.555Z,2.63
2019-04-21T22:50:42.537Z,2.10
2019-04-21T22:53:17.198Z,2.50
2019-04-21T22:55:56.349Z,2.50
2019-04-21T22:58:29.370Z,2.33
2019-04-21T23:01:01.565Z,2.80
2019-04-21T23:03:32.541Z,2.67
2019-04-21T23:06:14.668Z,2.60
2019-04-21T23:08:42.371Z,2.73
2019-04-21T23:11:14.693Z,2.20
2019-04-21T23:13:55.619Z,2.43
2019-04-21T23:16:28.025Z,2.27
2019-04-21T23:19:15.926Z,3.30
2019-04-21T23:21:49.746Z,3.23
2019-04-21T23:24:26.352Z,3.13
2019-04-21T23:26:53.488Z,2.90
2019-04-21T23:29:39.483Z,3.10
2019-04-21T23:31:59.342Z,3.57
2019-04-21T23:34:25.182Z,2.90
2019-04-21T23:37:03.273Z,2.60
2019-04-21T23:39:31.002Z,2.90
2019-04-21T23:42:02.684Z,3.00
2019-04-21T23:44:41.805Z,3.60
2019-04-21T23:47:11.800Z,3.03
2019-04-21T23:49:51.171Z,3.10
2019-04-21T23:52:16.522Z,3.63
2019-04-21T23:54:49.411Z,3.03
2019-04-21T23:57:30.431Z,2.73
2019-04-21T23:59:57.581Z,3.27
